Time;durP1;ratioP1;P1;durP2;ratioP2;P2;SDS_P1;SDS_P2;PMS_P1;PMS_P2;Temp;Humidity;BMP_temperature;BMP_pressure;BME280_temperature;BME280_humidity;BME280_pressure;Samples;Min_cycle;Max_cycle;Signal;HPM_P1;HPM_P2
2021/07/09 00:01:54;;;;;;;13.93;9.40;;;691.50;1740.80;;;;;;5081407;28;20035;-60
2021/07/09 00:04:21;;;;;;;12.70;9.20;;;691.50;1740.80;;;;;;5083051;28;20056;-60
2021/07/09 00:06:47;;;;;;;15.45;9.23;;;691.40;1740.80;;;;;;5081524;28;20027;-60
2021/07/09 00:09:13;;;;;;;14.65;9.35;;;691.40;1740.80;;;;;;5081965;28;20078;-61
2021/07/09 00:11:42;;;;;;;13.88;9.45;;;691.30;1766.40;;;;;;5083118;28;20116;-60
2021/07/09 00:14:10;;;;;;;11.70;9.57;;;691.30;1766.40;;;;;;5081750;28;20034;-60
2021/07/09 00:16:37;;;;;;;14.35;9.45;;;691.30;1766.40;;;;;;5083172;28;20028;-60
2021/07/09 00:19:05;;;;;;;13.13;9.63;;;691.30;1766.40;;;;;;5087557;28;20036;-60
2021/07/09 00:21:32;;;;;;;15.57;9.90;;;691.20;1792.00;;;;;;5080301;28;20444;-60
2021/07/09 00:23:59;;;;;;;13.90;9.52;;;666.50;1792.00;;;;;;5082654;28;20062;-60
2021/07/09 00:26:26;;;;;;;13.38;9.52;;;666.10;1792.00;;;;;;5091518;28;20032;-60
2021/07/09 00:28:52;;;;;;;15.48;9.50;;;666.40;1817.60;;;;;;5090579;28;20440;-60
2021/07/09 00:31:17;;;;;;;15.30;10.07;;;666.20;1817.60;;;;;;5084509;28;20055;-60
2021/07/09 00:33:43;;;;;;;17.52;9.52;;;666.20;1817.60;;;;;;5083800;28;20385;-60
2021/07/09 00:36:09;;;;;;;15.98;9.95;;;666.20;1817.60;;;;;;5084474;28;20055;-60
2021/07/09 00:38:35;;;;;;;15.65;10.10;;;666.20;1817.60;;;;;;5088777;28;20020;-61
2021/07/09 00:41:01;;;;;;;12.25;9.75;;;666.10;1817.60;;;;;;5088599;28;20541;-60
2021/07/09 00:43:26;;;;;;;13.48;9.40;;;666.10;1817.60;;;;;;5087748;28;20496;-61
2021/07/09 00:45:52;;;;;;;16.90;10.13;;;666.10;1817.60;;;;;;5086322;28;20029;-61
2021/07/09 00:48:18;;;;;;;13.98;9.50;;;666.10;1817.60;;;;;;5089915;28;20024;-60
2021/07/09 00:50:44;;;;;;;12.77;9.20;;;666.10;1817.60;;;;;;5082652;28;20029;-61
2021/07/09 00:53:09;;;;;;;12.18;8.88;;;666.10;1817.60;;;;;;5086121;28;20020;-60
2021/07/09 00:55:35;;;;;;;13.82;9.18;;;666.10;1817.60;;;;;;5084574;28;20052;-60
2021/07/09 00:58:02;;;;;;;17.33;9.90;;;666.10;1817.60;;;;;;5084734;28;20028;-61
2021/07/09 01:00:29;;;;;;;15.13;9.30;;;666.20;1817.60;;;;;;5084719;28;20017;-61
2021/07/09 01:02:55;;;;;;;13.73;10.13;;;666.20;1817.60;;;;;;5089573;28;20024;-60
2021/07/09 01:05:21;;;;;;;11.05;8.70;;;666.20;1817.60;;;;;;5087051;28;20043;-59
2021/07/09 01:07:47;;;;;;;15.18;9.00;;;666.20;1817.60;;;;;;5086257;28;20074;-60
2021/07/09 01:10:17;;;;;;;13.95;9.98;;;666.20;1817.60;;;;;;5091132;28;20048;-62
2021/07/09 01:12:43;;;;;;;12.00;9.35;;;666.20;1817.60;;;;;;5090992;28;20469;-63
2021/07/09 01:15:12;;;;;;;18.60;9.55;;;666.20;1817.60;;;;;;5091173;28;20066;-62
2021/07/09 01:17:39;;;;;;;13.23;9.38;;;666.20;1817.60;;;;;;5089915;28;20070;-62
2021/07/09 01:20:07;;;;;;;16.48;9.05;;;666.20;1817.60;;;;;;5086047;28;21194;-62
2021/07/09 01:22:37;;;;;;;13.43;8.80;;;666.20;1817.60;;;;;;5084372;28;20355;-62
2021/07/09 01:25:06;;;;;;;13.77;8.82;;;666.20;1817.60;;;;;;5088639;28;20086;-62
2021/07/09 01:27:32;;;;;;;12.35;8.95;;;666.30;1792.00;;;;;;5085111;28;20033;-62
2021/07/09 01:29:58;;;;;;;13.75;9.07;;;666.30;1792.00;;;;;;5084351;28;20016;-62
2021/07/09 01:32:24;;;;;;;14.93;8.85;;;666.30;1792.00;;;;;;5085318;28;20043;-62
2021/07/09 01:34:49;;;;;;;10.48;8.75;;;666.30;1792.00;;;;;;5083580;28;20095;-63
2021/07/09 01:37:17;;;;;;;15.73;9.05;;;666.40;1792.00;;;;;;5087481;28;20115;-62
2021/07/09 01:39:44;;;;;;;15.25;9.43;;;666.40;1817.60;;;;;;5089151;28;20482;-62
2021/07/09 01:42:11;;;;;;;10.32;8.70;;;666.30;1817.60;;;;;;5085963;28;20378;-62
2021/07/09 01:44:38;;;;;;;14.85;8.88;;;666.20;1817.60;;;;;;5084166;28;20023;-62
2021/07/09 01:47:05;;;;;;;13.68;9.05;;;666.20;1817.60;;;;;;5084606;28;20028;-63
2021/07/09 01:49:32;;;;;;;14.07;9.40;;;666.20;1817.60;;;;;;5085049;28;20027;-64
2021/07/09 01:51:58;;;;;;;12.35;9.20;;;666.20;1843.20;;;;;;5086027;28;20078;-62
2021/07/09 01:54:24;;;;;;;12.77;8.65;;;666.20;1843.20;;;;;;5089044;28;20016;-62
2021/07/09 01:56:49;;;;;;;13.82;9.15;;;666.20;1843.20;;;;;;5085378;28;20020;-62
2021/07/09 01:59:15;;;;;;;14.75;9.40;;;666.20;1843.20;;;;;;5083131;28;20020;-63
2021/07/09 02:01:41;;;;;;;14.40;9.13;;;666.20;1843.20;;;;;;5083699;28;20023;-61
2021/07/09 02:04:07;;;;;;;13.60;9.05;;;666.20;1843.20;;;;;;5084742;28;20451;-62
2021/07/09 02:06:32;;;;;;;14.93;8.90;;;666.20;1843.20;;;;;;5085741;28;20039;-65
2021/07/09 02:08:58;;;;;;;15.70;9.82;;;666.20;1843.20;;;;;;5085048;28;20394;-62
2021/07/09 02:11:24;;;;;;;13.85;9.75;;;666.20;1843.20;;;;;;5083091;28;20023;-62
2021/07/09 02:13:50;;;;;;;13.52;9.50;;;666.20;1868.80;;;;;;5084612;28;20457;-62
2021/07/09 02:16:16;;;;;;;12.07;10.02;;;666.10;1868.80;;;;;;5082288;28;20032;-62
2021/07/09 02:18:44;;;;;;;12.40;9.75;;;666.10;1868.80;;;;;;5084422;28;20024;-63
2021/07/09 02:21:09;;;;;;;12.35;9.27;;;666.10;1868.80;;;;;;5089333;28;20028;-64
2021/07/09 02:23:35;;;;;;;11.45;9.27;;;666.10;1868.80;;;;;;5083016;28;20059;-62
2021/07/09 02:26:01;;;;;;;13.77;9.10;;;666.10;1868.80;;;;;;5083743;28;20027;-62
2021/07/09 02:28:26;;;;;;;14.27;9.85;;;666.10;1868.80;;;;;;5083195;28;20478;-62
2021/07/09 02:30:52;;;;;;;14.43;9.52;;;666.10;1868.80;;;;;;5088498;28;20073;-63
2021/07/09 02:33:18;;;;;;;16.80;9.80;;;666.10;1868.80;;;;;;5094579;28;20032;-62
2021/07/09 02:35:43;;;;;;;15.85;10.05;;;666.10;1868.80;;;;;;5094656;28;20020;-64
2021/07/09 02:38:10;;;;;;;13.70;9.90;;;666.10;1868.80;;;;;;5094752;28;20024;-61
2021/07/09 02:40:36;;;;;;;15.77;10.05;;;666.10;1868.80;;;;;;5094840;28;20440;-62
2021/07/09 02:43:04;;;;;;;13.73;9.57;;;666.10;1894.40;;;;;;5094704;28;20020;-62
2021/07/09 02:45:29;;;;;;;13.40;9.82;;;666.00;1894.40;;;;;;5094586;28;20097;-62
2021/07/09 02:47:55;;;;;;;13.93;10.55;;;666.00;1894.40;;;;;;5094613;28;20681;-62
2021/07/09 02:50:24;;;;;;;13.75;10.38;;;665.90;1894.40;;;;;;5094439;28;20458;-62
2021/07/09 02:52:50;;;;;;;13.90;10.07;;;665.90;1920.00;;;;;;5094567;28;20044;-62
2021/07/09 02:55:17;;;;;;;13.52;10.30;;;665.80;1920.00;;;;;;5094818;28;20015;-62
2021/07/09 02:57:44;;;;;;;14.93;10.40;;;665.80;1920.00;;;;;;5094418;28;20020;-62
2021/07/09 03:00:15;;;;;;;12.82;10.35;;;665.70;1920.00;;;;;;5094336;28;20054;-61
2021/07/09 03:02:41;;;;;;;13.70;10.45;;;665.60;1945.60;;;;;;5094057;28;20025;-62
2021/07/09 03:05:09;;;;;;;15.07;10.70;;;665.60;1945.60;;;;;;5093988;28;20458;-62
2021/07/09 03:07:35;;;;;;;14.40;10.95;;;665.60;1945.60;;;;;;5094212;28;20491;-62
2021/07/09 03:10:01;;;;;;;13.90;10.75;;;665.60;1945.60;;;;;;5094287;28;20040;-62
2021/07/09 03:12:27;;;;;;;16.15;10.57;;;665.60;1945.60;;;;;;5094120;28;20039;-62
2021/07/09 03:14:53;;;;;;;12.98;10.82;;;665.60;1945.60;;;;;;5094198;28;20107;-62
2021/07/09 03:17:18;;;;;;;13.52;10.48;;;665.60;1945.60;;;;;;5093409;28;20030;-62
2021/07/09 03:19:44;;;;;;;13.32;10.50;;;640.90;1945.60;;;;;;5093966;28;20378;-62
2021/07/09 03:22:10;;;;;;;19.40;10.85;;;640.90;1945.60;;;;;;5094299;28;20024;-62
2021/07/09 03:24:37;;;;;;;12.90;10.43;;;640.90;1945.60;;;;;;5093789;28;20478;-61
2021/07/09 03:27:04;;;;;;;14.75;11.63;;;640.90;1945.60;;;;;;5094363;28;20089;-62
2021/07/09 03:29:29;;;;;;;16.73;10.82;;;640.90;1945.60;;;;;;5093787;28;20049;-62
2021/07/09 03:31:55;;;;;;;17.52;11.43;;;640.90;1971.20;;;;;;5093234;28;20039;-62
2021/07/09 03:34:21;;;;;;;17.55;11.55;;;640.90;1971.20;;;;;;5093767;28;20024;-62
2021/07/09 03:36:48;;;;;;;17.00;10.52;;;640.90;1971.20;;;;;;5093877;28;20119;-62
2021/07/09 03:39:14;;;;;;;15.52;11.10;;;640.90;1971.20;;;;;;5093888;28;20097;-62
2021/07/09 03:41:41;;;;;;;17.02;10.68;;;640.90;1971.20;;;;;;5093913;28;20020;-62
2021/07/09 03:44:07;;;;;;;17.15;11.43;;;640.90;1971.20;;;;;;5093900;28;20370;-62
2021/07/09 03:46:37;;;;;;;14.65;11.52;;;640.90;1971.20;;;;;;5094062;28;20414;-63
2021/07/09 03:49:04;;;;;;;14.98;11.70;;;640.80;1996.80;;;;;;5093526;28;20470;-62
2021/07/09 03:51:29;;;;;;;17.58;12.20;;;640.80;1996.80;;;;;;5093735;28;20388;-62
2021/07/09 03:53:56;;;;;;;20.25;11.93;;;640.80;1996.80;;;;;;5093918;28;20024;-61
2021/07/09 03:56:22;;;;;;;19.02;11.25;;;640.80;1996.80;;;;;;5093767;28;20024;-62
2021/07/09 03:58:49;;;;;;;14.18;10.75;;;640.80;1996.80;;;;;;5093907;28;20100;-62
2021/07/09 04:01:15;;;;;;;16.20;11.60;;;640.60;2022.40;;;;;;5093527;28;20023;-62
2021/07/09 04:03:41;;;;;;;17.60;11.00;;;640.80;1996.80;;;;;;5093148;28;20115;-62
2021/07/09 04:06:07;;;;;;;17.85;11.45;;;640.80;1996.80;;;;;;5093331;28;20040;-62
2021/07/09 04:08:32;;;;;;;14.05;11.02;;;640.90;1996.80;;;;;;5093547;28;20028;-62
2021/07/09 04:10:58;;;;;;;17.45;11.65;;;640.90;1996.80;;;;;;5093700;28;20513;-62
2021/07/09 04:13:24;;;;;;;16.83;11.40;;;640.90;1996.80;;;;;;5093695;28;20381;-62
2021/07/09 04:15:49;;;;;;;16.38;11.48;;;640.90;1996.80;;;;;;5093314;28;20020;-62
2021/07/09 04:18:15;;;;;;;16.25;11.90;;;640.90;1996.80;;;;;;5093204;28;20035;-62
2021/07/09 04:20:41;;;;;;;13.85;10.85;;;640.90;2022.40;;;;;;5093234;28;20024;-62
2021/07/09 04:23:07;;;;;;;15.10;11.27;;;640.90;2022.40;;;;;;5093176;28;20055;-62
2021/07/09 04:25:33;;;;;;;16.00;11.50;;;640.90;2022.40;;;;;;5093257;28;20028;-62
2021/07/09 04:27:58;;;;;;;23.48;11.85;;;640.90;2022.40;;;;;;5093021;28;20039;-62
2021/07/09 04:30:24;;;;;;;18.13;11.63;;;665.60;2022.40;;;;;;5094829;28;20024;-62
2021/07/09 04:32:50;;;;;;;20.88;11.45;;;665.80;2022.40;;;;;;5096889;28;20116;-61
2021/07/09 04:35:16;;;;;;;14.82;11.38;;;665.80;2022.40;;;;;;5096515;28;20119;-63
2021/07/09 04:37:41;;;;;;;17.40;11.60;;;665.80;2022.40;;;;;;5097359;28;20020;-63
2021/07/09 04:40:08;;;;;;;12.80;11.05;;;665.90;2022.40;;;;;;5097215;28;20461;-62
2021/07/09 04:42:34;;;;;;;12.88;11.18;;;665.90;1996.80;;;;;;5097032;28;20028;-62
2021/07/09 04:45:00;;;;;;;23.73;11.57;;;666.00;1996.80;;;;;;5096965;28;20022;-62
2021/07/09 04:47:26;;;;;;;18.85;12.00;;;666.00;2022.40;;;;;;5096797;28;20061;-62
2021/07/09 04:49:51;;;;;;;16.75;10.98;;;666.20;2022.40;;;;;;5095052;28;20482;-61
2021/07/09 04:52:17;;;;;;;18.20;10.52;;;666.20;1996.80;;;;;;5096614;28;20381;-61
2021/07/09 04:54:43;;;;;;;15.82;11.07;;;666.40;1996.80;;;;;;5097024;28;20024;-62
2021/07/09 04:57:08;;;;;;;16.98;10.88;;;666.40;1996.80;;;;;;5096966;28;20385;-62
2021/07/09 04:59:34;;;;;;;14.63;10.43;;;666.50;1996.80;;;;;;5096706;28;20531;-61
2021/07/09 05:02:00;;;;;;;19.30;10.25;;;691.20;1971.20;;;;;;5096636;28;20031;-61
2021/07/09 05:04:26;;;;;;;22.00;10.90;;;691.30;1971.20;;;;;;5096344;28;20081;-62
2021/07/09 05:06:51;;;;;;;13.07;10.25;;;691.50;1945.60;;;;;;5096358;28;20115;-62
2021/07/09 05:09:17;;;;;;;15.23;9.65;;;691.60;1945.60;;;;;;5096343;28;20032;-61
2021/07/09 05:11:43;;;;;;;14.68;10.07;;;691.70;1920.00;;;;;;5095949;28;20036;-62
2021/07/09 05:14:10;;;;;;;14.20;9.70;;;691.90;1894.40;;;;;;5096660;28;20028;-60
2021/07/09 05:16:36;;;;;;;20.08;10.07;;;692.00;1868.80;;;;;;5096497;28;20038;-60
2021/07/09 05:19:03;;;;;;;14.52;9.73;;;692.10;1868.80;;;;;;5096125;28;20028;-60
2021/07/09 05:21:29;;;;;;;16.10;9.45;;;716.80;1868.80;;;;;;5095989;28;20030;-60
2021/07/09 05:23:55;;;;;;;12.73;9.55;;;716.80;1868.80;;;;;;5096229;28;20051;-60
2021/07/09 05:26:21;;;;;;;12.05;9.02;;;716.90;1868.80;;;;;;5096372;28;20378;-60
2021/07/09 05:28:48;;;;;;;15.25;9.32;;;717.00;1843.20;;;;;;5096176;28;20020;-59
2021/07/09 05:31:16;;;;;;;15.48;9.13;;;717.00;1843.20;;;;;;5095816;28;20035;-60
2021/07/09 05:33:42;;;;;;;15.88;9.88;;;717.00;1843.20;;;;;;5095750;28;20085;-60
2021/07/09 05:36:08;;;;;;;15.35;8.90;;;717.10;1817.60;;;;;;5095695;28;20020;-60
2021/07/09 05:38:34;;;;;;;14.65;9.80;;;717.10;1817.60;;;;;;5096083;28;20031;-60
2021/07/09 05:40:59;;;;;;;17.15;8.95;;;717.20;1817.60;;;;;;5095646;28;20107;-63
2021/07/09 05:43:25;;;;;;;16.50;9.40;;;717.30;1817.60;;;;;;5094858;28;20465;-63
2021/07/09 05:45:51;;;;;;;17.05;8.57;;;717.40;1792.00;;;;;;5096076;28;20039;-62
2021/07/09 05:48:17;;;;;;;16.38;8.30;;;717.40;1792.00;;;;;;5095665;28;20027;-61
2021/07/09 05:50:45;;;;;;;14.23;9.35;;;717.40;1792.00;;;;;;5095540;28;20363;-62
2021/07/09 05:53:10;;;;;;;13.05;8.50;;;717.40;1766.40;;;;;;5095632;28;20039;-64
2021/07/09 05:55:36;;;;;;;12.75;8.20;;;717.40;1792.00;;;;;;5095553;28;20020;-63
2021/07/09 05:58:02;;;;;;;14.15;8.60;;;717.30;1792.00;;;;;;5095532;28;20077;-62
2021/07/09 06:00:27;;;;;;;11.27;8.40;;;717.20;1792.00;;;;;;5095478;28;20040;-62
2021/07/09 06:02:53;;;;;;;16.05;8.75;;;717.20;1792.00;;;;;;5095332;28;20414;-63
2021/07/09 06:05:19;;;;;;;11.38;8.82;;;717.20;1792.00;;;;;;5094919;28;20042;-62
2021/07/09 06:07:45;;;;;;;15.93;8.57;;;717.10;1792.00;;;;;;5095192;28;20055;-64
2021/07/09 06:10:11;;;;;;;19.08;9.15;;;717.20;1792.00;;;;;;5095519;28;20111;-62
2021/07/09 06:12:37;;;;;;;16.98;8.95;;;717.20;1792.00;;;;;;5095492;28;20485;-61
2021/07/09 06:15:04;;;;;;;13.90;8.25;;;717.20;1792.00;;;;;;5095527;28;20020;-61
2021/07/09 06:17:30;;;;;;;12.95;8.25;;;717.20;1792.00;;;;;;5094327;28;20051;-61
2021/07/09 06:19:56;;;;;;;13.48;7.97;;;717.30;1792.00;;;;;;5095085;28;20052;-62
2021/07/09 06:22:22;;;;;;;14.57;8.05;;;717.30;1792.00;;;;;;5094895;28;20028;-61
2021/07/09 06:24:47;;;;;;;16.60;8.50;;;717.40;1792.00;;;;;;5094745;28;20047;-62
2021/07/09 06:27:13;;;;;;;15.48;7.93;;;717.40;1792.00;;;;;;5095499;28;20024;-61
2021/07/09 06:29:39;;;;;;;11.93;8.27;;;717.50;1792.00;;;;;;5095070;28;20024;-62
2021/07/09 06:32:05;;;;;;;17.55;8.40;;;717.50;1766.40;;;;;;5095109;28;20477;-62
2021/07/09 06:34:31;;;;;;;15.45;8.45;;;717.60;1766.40;;;;;;5094804;28;20016;-61
2021/07/09 06:36:58;;;;;;;13.95;8.82;;;717.70;1766.40;;;;;;5094737;28;20107;-61
2021/07/09 06:39:24;;;;;;;11.82;8.30;;;742.40;1766.40;;;;;;5094686;28;20032;-62
2021/07/09 06:41:49;;;;;;;14.05;7.88;;;742.40;1766.40;;;;;;5094759;28;20099;-61
2021/07/09 06:44:15;;;;;;;10.85;8.18;;;742.50;1766.40;;;;;;5094683;28;20056;-61
2021/07/09 06:46:43;;;;;;;12.27;8.05;;;742.40;1766.40;;;;;;5094592;28;20126;-61
2021/07/09 06:49:10;;;;;;;14.07;7.80;;;742.40;1766.40;;;;;;5094388;28;20028;-61
2021/07/09 06:51:35;;;;;;;13.85;8.23;;;742.40;1766.40;;;;;;5093823;28;20035;-61
2021/07/09 06:54:02;;;;;;;16.80;8.52;;;742.60;1766.40;;;;;;5094467;28;20042;-61
2021/07/09 06:56:28;;;;;;;13.27;8.20;;;742.60;1766.40;;;;;;5094332;28;20416;-61
2021/07/09 06:58:55;;;;;;;17.77;9.07;;;742.70;1766.40;;;;;;5094479;28;20070;-61
2021/07/09 07:01:21;;;;;;;15.35;8.02;;;742.90;1740.80;;;;;;5094564;28;20472;-61
2021/07/09 07:03:46;;;;;;;14.27;8.77;;;743.10;1715.20;;;;;;5094162;28;20031;-61
2021/07/09 07:06:13;;;;;;;16.10;8.70;;;743.30;1715.20;;;;;;5093620;28;20016;-61
2021/07/09 07:08:39;;;;;;;13.20;8.18;;;768.00;1715.20;;;;;;5093982;28;20103;-61
2021/07/09 07:11:05;;;;;;;15.65;8.57;;;768.30;1664.00;;;;;;5094457;28;20028;-61
2021/07/09 07:13:30;;;;;;;16.45;8.85;;;768.30;1664.00;;;;;;5094326;28;20032;-61
2021/07/09 07:15:56;;;;;;;15.02;8.95;;;768.40;1638.40;;;;;;5094021;28;20032;-61
2021/07/09 07:18:23;;;;;;;16.70;8.95;;;768.60;1638.40;;;;;;5093886;28;20534;-60
2021/07/09 07:20:49;;;;;;;13.65;9.10;;;768.80;1612.80;;;;;;5093887;28;20065;-61
2021/07/09 07:23:16;;;;;;;17.35;9.20;;;768.90;1587.20;;;;;;5093592;28;20044;-61
2021/07/09 07:25:44;;;;;;;15.13;9.57;;;793.60;1587.20;;;;;;5093928;28;20028;-61
2021/07/09 07:28:10;;;;;;;12.48;8.95;;;793.70;1561.60;;;;;;5094169;28;20028;-60
2021/07/09 07:30:36;;;;;;;13.75;8.95;;;793.80;1587.20;;;;;;5094005;28;20031;-61
2021/07/09 07:33:03;;;;;;;13.80;9.73;;;793.80;1561.60;;;;;;5093672;28;20036;-61
2021/07/09 07:35:30;;;;;;;19.27;9.35;;;793.90;1587.20;;;;;;5093575;28;20097;-61
2021/07/09 07:37:57;;;;;;;15.30;9.27;;;793.90;1612.80;;;;;;5093994;28;20043;-61
2021/07/09 07:40:23;;;;;;;14.88;9.85;;;794.10;1587.20;;;;;;5093795;28;20039;-62
2021/07/09 07:42:49;;;;;;;18.63;9.23;;;794.10;1587.20;;;;;;5090980;28;20024;-61
2021/07/09 07:45:15;;;;;;;15.10;9.23;;;794.40;1536.00;;;;;;5082111;28;20535;-61
2021/07/09 07:47:41;;;;;;;15.40;9.02;;;819.40;1510.40;;;;;;5081811;28;20025;-63
2021/07/09 07:50:08;;;;;;;13.80;9.38;;;819.50;1510.40;;;;;;5083156;28;20503;-61
2021/07/09 07:52:33;;;;;;;14.93;9.35;;;819.70;1484.80;;;;;;5082334;28;20028;-61
2021/07/09 07:55:00;;;;;;;13.73;8.98;;;819.50;1510.40;;;;;;5087586;28;20055;-61
2021/07/09 07:57:26;;;;;;;13.85;9.43;;;819.70;1510.40;;;;;;5086152;28;20073;-60
2021/07/09 07:59:51;;;;;;;11.38;8.73;;;820.10;1484.80;;;;;;5084974;28;20024;-61
2021/07/09 08:02:18;;;;;;;14.30;8.85;;;844.80;1510.40;;;;;;5083228;28;20428;-61
2021/07/09 08:04:45;;;;;;;10.13;8.55;;;844.80;1459.20;;;;;;5084257;28;20081;-60
2021/07/09 08:07:11;;;;;;;12.43;8.55;;;844.80;1459.20;;;;;;5097588;28;20028;-59
2021/07/09 08:09:37;;;;;;;12.80;8.77;;;820.10;1408.00;;;;;;5097346;28;20013;-59
2021/07/09 08:12:03;;;;;;;12.93;8.70;;;844.80;1459.20;;;;;;5097196;28;20031;-59
2021/07/09 08:14:29;;;;;;;12.80;8.30;;;844.90;1459.20;;;;;;5097749;28;20019;-59
2021/07/09 08:16:55;;;;;;;10.82;8.45;;;844.80;1433.60;;;;;;5097372;28;20390;-61
2021/07/09 08:19:21;;;;;;;12.13;8.70;;;820.10;1408.00;;;;;;5097354;28;20024;-61
2021/07/09 08:21:48;;;;;;;13.32;8.38;;;844.80;1433.60;;;;;;5097368;28;20483;-61
2021/07/09 08:24:15;;;;;;;11.75;8.57;;;844.80;1408.00;;;;;;5097178;28;20048;-62
2021/07/09 08:26:41;;;;;;;11.10;8.40;;;844.80;1408.00;;;;;;5097132;28;20414;-62
2021/07/09 08:29:07;;;;;;;10.15;7.93;;;844.80;1408.00;;;;;;5097256;28;20145;-61
2021/07/09 08:31:33;;;;;;;10.32;8.50;;;845.10;1382.40;;;;;;5092026;28;20067;-62
2021/07/09 08:33:58;;;;;;;12.23;8.45;;;845.40;1356.80;;;;;;5088365;28;20039;-60
2021/07/09 08:36:25;;;;;;;13.52;8.30;;;870.40;1331.20;;;;;;5087053;28;20024;-62
2021/07/09 08:38:52;;;;;;;12.82;8.75;;;870.40;1331.20;;;;;;5086751;28;20024;-62
2021/07/09 08:41:18;;;;;;;12.65;8.68;;;870.50;1331.20;;;;;;5085226;28;20158;-64
2021/07/09 08:43:44;;;;;;;15.60;8.70;;;870.60;1356.80;;;;;;5086972;28;20446;-62
2021/07/09 08:46:10;;;;;;;12.00;8.55;;;870.80;1382.40;;;;;;5089073;28;20044;-64
2021/07/09 08:48:37;;;;;;;13.13;7.93;;;870.60;1356.80;;;;;;5085291;28;20078;-63
2021/07/09 08:51:04;;;;;;;9.52;8.52;;;870.80;1356.80;;;;;;5090154;28;20137;-64
2021/07/09 08:53:30;;;;;;;13.93;8.23;;;870.80;1356.80;;;;;;5090110;28;20024;-63
2021/07/09 08:55:56;;;;;;;17.80;8.30;;;870.80;1356.80;;;;;;5085798;28;20462;-63
2021/07/09 08:58:22;;;;;;;14.15;8.27;;;870.80;1331.20;;;;;;5085051;28;20028;-63
2021/07/09 09:00:48;;;;;;;8.95;8.02;;;871.00;1305.60;;;;;;5084528;28;20532;-63
2021/07/09 09:03:19;;;;;;;13.50;8.43;;;871.20;1280.00;;;;;;5083286;28;20443;-63
2021/07/09 09:05:46;;;;;;;9.93;7.75;;;871.20;1280.00;;;;;;5086086;28;20024;-63
2021/07/09 09:08:14;;;;;;;12.15;8.13;;;871.20;1254.40;;;;;;5086172;28;20473;-62
2021/07/09 09:10:46;;;;;;;12.18;8.45;;;871.20;1254.40;;;;;;5091429;28;20063;-65
2021/07/09 09:13:19;;;;;;;14.10;8.63;;;871.00;1228.80;;;;;;5086400;28;20040;-66
2021/07/09 09:16:10;;;;;;;12.50;7.97;;;871.20;1254.40;;;;;;5094049;28;20024;-63
2021/07/09 09:18:55;;;;;;;11.38;8.55;;;896.10;1203.20;;;;;;5090687;28;20115;-65
2021/07/09 09:21:23;;;;;;;10.55;7.95;;;896.50;1203.20;;;;;;5095991;28;20107;-65
2021/07/09 09:23:52;;;;;;;12.18;7.78;;;896.80;1177.60;;;;;;5096141;28;20071;-64
2021/07/09 09:26:39;;;;;;;9.65;7.93;;;896.80;1177.60;;;;;;5095965;28;20028;-64
2021/07/09 09:29:06;;;;;;;11.23;8.02;;;896.80;1177.60;;;;;;5092513;28;20054;-63
2021/07/09 09:31:37;;;;;;;12.32;7.75;;;896.50;1177.60;;;;;;5076492;28;20437;-64
2021/07/09 09:34:04;;;;;;;9.25;7.43;;;896.40;1177.60;;;;;;5091246;28;20480;-63
2021/07/09 09:36:31;;;;;;;13.25;7.85;;;896.60;1152.00;;;;;;5089250;28;20024;-68
2021/07/09 09:39:02;;;;;;;11.68;8.48;;;896.10;1203.20;;;;;;5075540;28;20035;-66
2021/07/09 09:41:28;;;;;;;14.05;8.43;;;871.20;1305.60;;;;;;5075456;28;20043;-63
2021/07/09 09:44:09;;;;;;;14.90;9.00;;;870.80;1331.20;;;;;;5082765;28;20028;-68
2021/07/09 09:46:35;;;;;;;13.20;9.35;;;870.60;1382.40;;;;;;5095583;28;20081;-63
2021/07/09 09:49:01;;;;;;;15.82;9.07;;;845.60;1510.40;;;;;;5088821;28;20479;-67
2021/07/09 09:51:36;;;;;;;13.70;9.20;;;845.50;1510.40;;;;;;5092167;28;20037;-66
2021/07/09 09:54:07;;;;;;;16.02;9.77;;;845.60;1510.40;;;;;;5095245;28;20355;-65
2021/07/09 09:56:33;;;;;;;16.20;9.13;;;870.50;1536.00;;;;;;5095435;28;20028;-65
2021/07/09 09:59:12;;;;;;;13.50;9.25;;;870.60;1484.80;;;;;;5095529;28;20027;-66
2021/07/09 10:01:37;;;;;;;14.35;9.27;;;870.90;1408.00;;;;;;5095261;28;20020;-66
2021/07/09 10:04:03;;;;;;;12.15;8.75;;;871.00;1408.00;;;;;;5093783;28;20073;-67
2021/07/09 10:06:29;;;;;;;11.82;8.48;;;871.20;1331.20;;;;;;5093612;28;20035;-66
2021/07/09 10:08:57;;;;;;;11.52;8.68;;;896.40;1305.60;;;;;;5095025;28;20024;-64
2021/07/09 10:11:24;;;;;;;10.48;8.70;;;896.50;1254.40;;;;;;5092785;28;20367;-68
2021/07/09 10:13:50;;;;;;;14.00;8.32;;;896.90;1280.00;;;;;;5085992;28;20412;-64
2021/07/09 10:16:17;;;;;;;10.20;8.35;;;921.60;1254.40;;;;;;5091104;28;20020;-63
2021/07/09 10:18:44;;;;;;;21.83;8.45;;;896.80;1228.80;;;;;;5094620;28;20024;-65
2021/07/09 10:21:10;;;;;;;14.85;8.57;;;921.70;1228.80;;;;;;5094800;28;20474;-66
2021/07/09 10:23:35;;;;;;;10.50;8.63;;;921.60;1254.40;;;;;;5094409;28;20048;-61
2021/07/09 10:26:01;;;;;;;15.73;8.60;;;896.80;1228.80;;;;;;5094302;28;20032;-60
2021/07/09 10:28:27;;;;;;;13.05;8.55;;;896.60;1280.00;;;;;;5093898;28;20103;-59
2021/07/09 10:30:54;;;;;;;13.13;8.13;;;896.80;1280.00;;;;;;5094660;28;20059;-61
2021/07/09 10:33:28;;;;;;;11.85;8.13;;;896.50;1228.80;;;;;;5094228;28;20089;-62
2021/07/09 10:35:55;;;;;;;;;;;896.30;1228.80;;;;;;5094619;28;20111;-61
2021/07/09 10:38:22;;;;;;;11.98;8.27;;;896.10;1228.80;;;;;;5094276;28;19912;-59
2021/07/09 10:40:49;;;;;;;13.18;8.75;;;896.00;1228.80;;;;;;5094137;28;20477;-60
2021/07/09 10:43:16;;;;;;;13.73;7.68;;;896.10;1228.80;;;;;;5094443;28;20462;-62
2021/07/09 10:45:43;;;;;;;13.77;8.60;;;896.30;1203.20;;;;;;5094313;28;20386;-60
2021/07/09 10:48:09;;;;;;;14.55;7.82;;;896.80;1177.60;;;;;;5092678;28;20458;-60
2021/07/09 10:50:43;;;;;;;11.75;7.55;;;921.60;1177.60;;;;;;5081001;28;20419;-63
2021/07/09 10:53:15;;;;;;;16.95;8.05;;;922.00;1177.60;;;;;;5074734;28;20040;-60
2021/07/09 10:56:01;;;;;;;11.30;7.95;;;922.30;1126.40;;;;;;5088390;28;20031;-62
2021/07/09 10:58:40;;;;;;;9.75;8.07;;;922.50;1100.80;;;;;;5069472;28;20142;-62
2021/07/09 11:01:16;;;;;;;11.43;8.05;;;947.70;1075.20;;;;;;5060168;28;20021;-62
2021/07/09 11:03:44;;;;;;;12.60;7.95;;;948.00;1049.60;;;;;;5055719;28;20025;-63
2021/07/09 11:06:20;;;;;;;12.65;7.60;;;947.90;1049.60;;;;;;5059373;28;20055;-62
2021/07/09 11:09:03;;;;;;;9.40;7.60;;;948.00;1049.60;;;;;;5057017;28;20021;-62
2021/07/09 11:11:28;;;;;;;12.73;7.95;;;972.80;1049.60;;;;;;5066939;28;20067;-62
2021/07/09 11:13:58;;;;;;;10.93;7.13;;;972.80;1049.60;;;;;;5070887;28;20029;-62
2021/07/09 11:16:24;;;;;;;13.55;7.40;;;973.00;1024.00;;;;;;5070613;28;20029;-62
2021/07/09 11:18:59;;;;;;;15.20;8.32;;;973.10;1024.00;;;;;;5070930;28;20033;-62
2021/07/09 11:21:31;;;;;;;12.25;7.70;;;973.10;1075.20;;;;;;5070705;28;20528;-61
2021/07/09 11:23:56;;;;;;;10.55;7.90;;;973.00;1126.40;;;;;;5070466;28;20032;-62
2021/07/09 11:26:23;;;;;;;10.73;7.38;;;973.10;1100.80;;;;;;5070033;28;20021;-60
2021/07/09 11:28:49;;;;;;;11.02;7.93;;;973.10;1100.80;;;;;;5070627;28;20024;-61
2021/07/09 11:31:33;;;;;;;10.52;7.55;;;973.10;1100.80;;;;;;5070577;28;20436;-62
2021/07/09 11:34:03;;;;;;;13.13;8.18;;;973.10;1100.80;;;;;;5070551;28;20028;-63
2021/07/09 11:36:38;;;;;;;10.07;7.82;;;973.20;1049.60;;;;;;5069462;28;20043;-62
2021/07/09 11:39:13;;;;;;;12.02;7.80;;;973.10;1049.60;;;;;;5070082;28;20075;-63
2021/07/09 11:42:04;;;;;;;10.65;7.70;;;973.10;1024.00;;;;;;5070098;28;20027;-61
2021/07/09 11:44:39;;;;;;;11.75;7.40;;;973.10;1049.60;;;;;;5070406;28;20033;-61
2021/07/09 11:47:07;;;;;;;8.48;7.57;;;972.80;1075.20;;;;;;5070233;28;20028;-63
2021/07/09 11:49:35;;;;;;;11.45;8.00;;;972.80;1100.80;;;;;;5070125;28;20021;-62
2021/07/09 11:52:07;;;;;;;13.90;7.68;;;972.90;1075.20;;;;;;5055008;28;20021;-62
2021/07/09 11:54:39;;;;;;;15.32;7.97;;;972.80;1075.20;;;;;;5049669;28;20025;-63
2021/07/09 11:57:08;;;;;;;11.27;8.25;;;973.10;1049.60;;;;;;5049643;28;20045;-62
2021/07/09 11:59:34;;;;;;;11.70;8.13;;;948.00;1075.20;;;;;;5049882;28;20018;-61
2021/07/09 12:02:00;;;;;;;13.13;8.45;;;947.90;1049.60;;;;;;5049995;28;20029;-60
2021/07/09 12:04:33;;;;;;;10.82;8.00;;;947.80;1075.20;;;;;;5049669;28;20493;-63
2021/07/09 12:07:19;;;;;;;11.55;8.48;;;947.80;1075.20;;;;;;5049643;28;20104;-60